Time;durP1;ratioP1;P1;durP2;ratioP2;P2;SDS_P1;SDS_P2;PMS_P1;PMS_P2;Temp;Humidity;BMP_temperature;BMP_pressure;BME280_temperature;BME280_humidity;BME280_pressure;Samples;Min_cycle;Max_cycle;Signal;HPM_P1;HPM_P2
2023/11/09 00:00:37;;;;;;;8.20;7.80;;;;;;;7.59;nan;100043.00;5042089;27;98123;-85
2023/11/09 00:03:04;;;;;;;9.50;9.00;;;;;;;7.57;nan;100051.75;5019416;27;97075;-85
2023/11/09 00:05:29;;;;;;;12.80;11.98;;;;;;;7.65;nan;100057.63;5047544;27;96770;-84
2023/11/09 00:07:55;;;;;;;7.90;7.50;;;;;;;7.52;nan;100014.44;5043281;27;97889;-85
2023/11/09 00:10:21;;;;;;;9.27;8.82;;;;;;;7.78;nan;100045.97;5056676;27;97963;-84
2023/11/09 00:12:50;;;;;;;8.48;8.07;;;;;;;7.54;nan;100044.00;5022193;27;96824;-85
2023/11/09 00:15:20;;;;;;;9.20;8.35;;;;;;;7.74;nan;100041.72;5023135;27;96937;-84
2023/11/09 00:17:46;;;;;;;5.60;5.30;;;;;;;7.83;nan;100046.69;5040889;27;98082;-85
2023/11/09 00:20:12;;;;;;;5.20;5.00;;;;;;;7.86;nan;100045.75;5031683;27;101265;-85
2023/11/09 00:22:39;;;;;;;4.65;4.45;;;;;;;7.66;nan;99999.25;5029923;27;98305;-84
2023/11/09 00:25:05;;;;;;;4.50;4.30;;;;;;;7.59;nan;100039.50;5035947;27;97258;-84
2023/11/09 00:27:30;;;;;;;4.28;4.07;;;;;;;7.56;nan;100040.44;5034253;27;101012;-84
2023/11/09 00:29:56;;;;;;;5.15;4.95;;;;;;;7.30;nan;100011.53;5029339;27;100221;-85
2023/11/09 00:32:21;;;;;;;5.53;5.22;;;;;;;7.30;nan;99986.28;5041273;27;96827;-85
2023/11/09 00:34:48;;;;;;;11.15;10.65;;;;;;;7.61;nan;100037.72;5048215;27;96905;-85
2023/11/09 00:37:14;;;;;;;9.70;9.20;;;;;;;7.37;nan;100000.03;5030783;27;100001;-85
2023/11/09 00:39:39;;;;;;;9.80;9.30;;;;;;;7.63;nan;100044.59;5044016;27;97960;-85
2023/11/09 00:42:06;;;;;;;11.52;10.93;;;;;;;7.29;nan;100005.44;5045211;27;96831;-85
2023/11/09 00:44:32;;;;;;;9.75;9.25;;;;;;;7.22;nan;99999.53;5045366;27;96842;-85
2023/11/09 00:46:58;;;;;;;9.77;9.27;;;;;;;7.22;nan;100009.97;5030072;27;101210;-85
2023/11/09 00:49:23;;;;;;;10.68;10.18;;;;;;;7.32;nan;100036.69;5028835;27;100218;-84
2023/11/09 00:51:49;;;;;;;5.85;5.55;;;;;;;7.23;nan;100034.31;5045370;27;97219;-85
2023/11/09 00:54:14;;;;;;;6.32;5.78;;;;;;;7.14;nan;100024.97;5044537;27;97184;-84
2023/11/09 00:56:40;;;;;;;7.20;6.82;;;;;;;7.07;nan;100022.53;5028205;27;101193;-85
2023/11/09 00:59:06;;;;;;;11.18;10.63;;;;;;;7.12;nan;100024.13;5019194;27;100752;-85
2023/11/09 01:01:31;;;;;;;8.90;8.50;;;;;;;7.11;nan;100026.78;5017933;27;97067;-85
2023/11/09 01:03:57;;;;;;;8.00;7.57;;;;;;;7.05;nan;100017.38;5046433;27;97028;-85
2023/11/09 01:06:22;;;;;;;0.30;0.30;;;;;;;6.98;nan;100019.28;5030152;27;101233;-85
2023/11/09 01:08:48;;;;;;;0.15;0.15;;;;;;;6.98;nan;100021.00;5034058;27;100924;-85
2023/11/09 01:11:22;;;;;;;0.10;0.10;;;;;;;6.88;nan;99991.66;5044783;27;97241;-85
2023/11/09 01:13:48;;;;;;;0.10;0.10;;;;;;;7.14;nan;100024.97;5026179;27;96772;-84
2023/11/09 01:16:13;;;;;;;0.25;0.25;;;;;;;6.96;nan;99992.34;5035112;27;99725;-85
2023/11/09 01:18:39;;;;;;;0.00;0.00;;;;;;;7.15;nan;100018.84;5032655;27;99688;-85
2023/11/09 01:21:05;;;;;;;1.30;1.30;;;;;;;7.05;nan;100000.84;5012052;27;97149;-85
2023/11/09 01:23:30;;;;;;;0.10;0.10;;;;;;;6.95;nan;99998.47;5030107;27;97783;-85
2023/11/09 01:25:56;;;;;;;0.15;0.15;;;;;;;7.13;nan;100009.34;5040497;27;98247;-85
2023/11/09 01:28:21;;;;;;;0.43;0.43;;;;;;;7.05;nan;100008.69;5031028;27;99682;-85
2023/11/09 01:30:47;;;;;;;0.10;0.10;;;;;;;6.71;nan;99970.34;5034955;27;96774;-84
2023/11/09 01:33:13;;;;;;;0.10;0.10;;;;;;;6.95;nan;100002.81;5031772;27;96973;-84
2023/11/09 01:35:39;;;;;;;0.17;0.17;;;;;;;6.88;nan;99993.44;5035043;27;98652;-85
2023/11/09 01:38:05;;;;;;;0.00;0.00;;;;;;;6.98;nan;99998.41;5063271;27;97974;-85
2023/11/09 01:40:33;;;;;;;0.10;0.10;;;;;;;6.93;nan;100002.88;5022603;27;96819;-85
2023/11/09 01:42:59;;;;;;;0.20;0.20;;;;;;;6.90;nan;99992.50;5036128;27;97190;-85
2023/11/09 01:45:25;;;;;;;0.40;0.40;;;;;;;6.99;nan;100009.69;5043453;27;97997;-84
2023/11/09 01:47:53;;;;;;;0.00;0.00;;;;;;;7.00;nan;100008.78;5028536;27;101169;-84
2023/11/09 01:50:18;;;;;;;0.20;0.20;;;;;;;7.09;nan;99994.66;5043482;27;97909;-85
2023/11/09 01:52:44;;;;;;;0.57;0.57;;;;;;;7.23;nan;99990.78;5041241;27;97066;-85
2023/11/09 01:55:10;;;;;;;0.38;0.25;;;;;;;7.04;nan;99953.03;5030851;27;101409;-85
2023/11/09 01:57:36;;;;;;;0.32;0.32;;;;;;;7.30;nan;99991.50;5029352;27;101069;-85
2023/11/09 02:00:03;;;;;;;0.10;0.10;;;;;;;7.24;nan;99991.63;5032004;27;97033;-85
2023/11/09 02:02:39;;;;;;;0.13;0.13;;;;;;;7.35;nan;99976.56;5046093;27;97074;-84
2023/11/09 02:05:06;;;;;;;0.10;0.10;;;;;;;7.26;nan;99982.03;5030460;27;101637;-85
2023/11/09 02:07:31;;;;;;;2.05;1.40;;;;;;;7.19;nan;99962.22;5003490;28;101304;-85
2023/11/09 02:09:57;;;;;;;0.68;0.68;;;;;;;7.14;nan;99969.28;5008775;28;96777;-87
2023/11/09 02:12:23;;;;;;;0.15;0.15;;;;;;;7.11;nan;99980.66;5012548;28;96861;-84
2023/11/09 02:14:49;;;;;;;0.00;0.00;;;;;;;7.02;nan;99986.97;4995245;28;101399;-84
2023/11/09 02:17:14;;;;;;;0.30;0.30;;;;;;;7.07;nan;99979.03;5028609;27;98386;-84
2023/11/09 02:19:40;;;;;;;0.10;0.10;;;;;;;6.85;nan;99933.50;5026967;27;97054;-85
2023/11/09 02:22:06;;;;;;;0.65;0.65;;;;;;;7.03;nan;99982.59;5028982;28;97031;-85
2023/11/09 02:24:32;;;;;;;0.03;0.03;;;;;;;6.90;nan;99979.44;5012854;28;97851;-85
2023/11/09 02:26:58;;;;;;;0.05;0.05;;;;;;;6.84;nan;99974.38;5027696;27;101475;-85
2023/11/09 02:29:25;;;;;;;0.10;0.10;;;;;;;6.76;nan;99971.94;5015180;27;97208;-85
2023/11/09 02:31:51;;;;;;;0.00;0.00;;;;;;;6.80;nan;99973.56;5036642;27;97390;-85
2023/11/09 02:34:23;;;;;;;0.10;0.10;;;;;;;6.66;nan;99954.81;5009835;27;100769;-84
2023/11/09 02:36:51;;;;;;;1.98;0.90;;;;;;;6.71;nan;99973.81;4995504;28;101937;-85
2023/11/09 02:39:17;;;;;;;0.10;0.10;;;;;;;6.67;nan;99968.72;5010208;28;96744;-85
2023/11/09 02:41:42;;;;;;;0.17;0.17;;;;;;;6.65;nan;99978.31;5025331;27;96879;-85
2023/11/09 02:44:08;;;;;;;1.65;1.55;;;;;;;6.60;nan;99956.69;5025441;27;102097;-84
2023/11/09 02:46:34;;;;;;;0.20;0.20;;;;;;;6.39;nan;99921.56;5023400;27;98130;-84
2023/11/09 02:49:00;;;;;;;0.03;0.03;;;;;;;6.70;nan;99968.63;5034206;27;96905;-84
2023/11/09 02:51:25;;;;;;;0.00;0.00;;;;;;;6.48;nan;99927.41;5016123;27;96802;-84
2023/11/09 02:53:53;;;;;;;0.00;0.00;;;;;;;6.76;nan;99966.72;5037630;27;98110;-85
2023/11/09 02:56:20;;;;;;;0.00;0.00;;;;;;;6.88;nan;99972.56;5007586;27;97936;-84
2023/11/09 02:58:46;;;;;;;0.00;0.00;;;;;;;6.86;nan;99966.50;5023145;27;96750;-85
2023/11/09 03:01:12;;;;;;;1.20;1.17;;;;;;;6.87;nan;99968.25;5023838;28;96780;-85
2023/11/09 03:03:37;;;;;;;0.60;0.47;;;;;;;7.02;nan;99968.69;5031062;27;98252;-84
2023/11/09 03:06:03;;;;;;;1.00;0.90;;;;;;;7.13;nan;99967.59;5025505;27;97714;-85
2023/11/09 03:08:30;;;;;;;0.28;0.28;;;;;;;6.86;nan;99923.00;5041547;27;97213;-84
2023/11/09 03:10:56;;;;;;;0.00;0.00;;;;;;;6.70;nan;99921.69;5034936;27;97876;-85
2023/11/09 03:13:21;;;;;;;0.20;0.20;;;;;;;6.91;nan;99955.06;5028096;27;101351;-84
2023/11/09 03:15:47;;;;;;;0.00;0.00;;;;;;;6.79;nan;99955.38;5009321;27;101483;-84
2023/11/09 03:18:13;;;;;;;0.00;0.00;;;;;;;6.66;nan;99940.91;5043027;27;96873;-85
2023/11/09 03:20:40;;;;;;;1.67;1.55;;;;;;;6.68;nan;99955.63;5047016;27;97049;-85
2023/11/09 03:23:06;;;;;;;0.00;0.00;;;;;;;6.68;nan;99958.22;5031523;27;101113;-85
2023/11/09 03:25:32;;;;;;;0.00;0.00;;;;;;;6.55;nan;99944.63;5030378;27;99335;-83
2023/11/09 03:27:57;;;;;;;0.00;0.00;;;;;;;6.67;nan;99953.06;5044258;27;96789;-84
2023/11/09 03:30:22;;;;;;;0.73;0.73;;;;;;;6.65;nan;99927.00;5048172;27;96923;-84
2023/11/09 03:32:48;;;;;;;0.10;0.10;;;;;;;6.80;nan;99941.41;5028696;27;101214;-84
2023/11/09 03:35:14;;;;;;;0.32;0.32;;;;;;;6.70;nan;99926.91;5029203;27;97929;-84
2023/11/09 03:37:42;;;;;;;0.00;0.00;;;;;;;6.70;nan;99938.19;5045065;27;96665;-84
2023/11/09 03:40:08;;;;;;;0.10;0.10;;;;;;;6.83;nan;99945.72;5044952;27;96798;-85
2023/11/09 03:42:34;;;;;;;0.10;0.10;;;;;;;6.46;nan;99891.84;5041984;27;97531;-83
2023/11/09 03:45:00;;;;;;;5.35;0.85;;;;;;;6.54;nan;99895.09;5014147;27;101797;-84
2023/11/09 03:47:26;;;;;;;1.30;1.15;;;;;;;6.71;nan;99932.06;5044216;27;96933;-84
2023/11/09 03:49:51;;;;;;;0.00;0.00;;;;;;;6.60;nan;99926.25;5046736;27;96776;-84
2023/11/09 03:52:17;;;;;;;0.00;0.00;;;;;;;6.66;nan;99917.41;5043370;27;98065;-84
2023/11/09 03:54:43;;;;;;;0.00;0.00;;;;;;;6.60;nan;99907.13;5027991;27;98764;-84
2023/11/09 03:57:08;;;;;;;0.10;0.10;;;;;;;6.66;nan;99907.88;5019461;27;96969;-84
2023/11/09 03:59:34;;;;;;;0.10;0.10;;;;;;;6.61;nan;99904.50;5024500;27;97240;-84
2023/11/09 04:01:59;;;;;;;0.43;0.43;;;;;;;6.61;nan;99911.47;5024471;27;100734;-85
2023/11/09 04:04:25;;;;;;;0.10;0.10;;;;;;;6.32;nan;99868.69;5033475;27;101168;-84
2023/11/09 04:06:51;;;;;;;0.08;0.08;;;;;;;6.58;nan;99899.38;5041764;27;96820;-83
2023/11/09 04:09:20;;;;;;;0.10;0.10;;;;;;;6.63;nan;99881.84;5049481;27;97183;-84
2023/11/09 04:11:46;;;;;;;1.60;1.50;;;;;;;6.66;nan;99884.41;5049098;27;97850;-83
2023/11/09 04:14:12;;;;;;;0.00;0.00;;;;;;;6.75;nan;99881.53;5032414;27;96782;-84
2023/11/09 04:16:37;;;;;;;0.52;0.52;;;;;;;6.75;nan;99878.09;5017298;27;96736;-84
2023/11/09 04:19:03;;;;;;;0.10;0.10;;;;;;;6.72;nan;99870.31;5044207;27;96928;-84
2023/11/09 04:21:28;;;;;;;0.00;0.00;;;;;;;6.66;nan;99867.84;5032693;27;97384;-84
2023/11/09 04:23:54;;;;;;;1.33;1.23;;;;;;;6.56;nan;99867.25;5034237;27;98335;-84
2023/11/09 04:26:19;;;;;;;0.00;0.00;;;;;;;6.60;nan;99875.84;5062416;27;97153;-84
2023/11/09 04:28:45;;;;;;;0.10;0.10;;;;;;;6.47;nan;99863.13;5044770;27;96713;-84
2023/11/09 04:31:11;;;;;;;0.10;0.10;;;;;;;6.52;nan;99870.84;5042289;27;98470;-84
2023/11/09 04:33:37;;;;;;;0.00;0.00;;;;;;;6.57;nan;99874.16;5049172;27;97859;-84
2023/11/09 04:36:08;;;;;;;0.30;0.30;;;;;;;6.46;nan;99858.81;5029330;27;96857;-84
2023/11/09 04:38:38;;;;;;;0.10;0.10;;;;;;;6.46;nan;99855.34;5026288;27;97208;-84
2023/11/09 04:41:09;;;;;;;0.40;0.40;;;;;;;6.53;nan;99868.16;5032892;27;100082;-84
2023/11/09 04:43:35;;;;;;;0.10;0.10;;;;;;;6.52;nan;99844.75;5026346;27;98164;-84
2023/11/09 04:46:10;;;;;;;0.55;0.55;;;;;;;6.38;nan;99816.41;5048158;27;96765;-84
2023/11/09 04:48:46;;;;;;;0.30;0.30;;;;;;;6.60;nan;99855.81;5047926;27;97233;-84
2023/11/09 04:51:30;;;;;;;0.17;0.17;;;;;;;6.67;nan;99844.38;5049880;27;97481;-84
2023/11/09 04:54:03;;;;;;;0.30;0.30;;;;;;;6.70;nan;99841.66;5040809;27;98410;-84
2023/11/09 04:56:38;;;;;;;0.20;0.20;;;;;;;6.71;nan;99847.75;5041578;27;97840;-84
2023/11/09 05:07:25;;;;;;;0.10;0.10;;;;;;;6.55;nan;99842.06;5035224;27;96719;-84
2023/11/09 05:09:51;;;;;;;0.20;0.20;;;;;;;6.47;nan;99837.03;5031239;27;97442;-84
2023/11/09 05:12:17;;;;;;;0.50;0.50;;;;;;;6.19;nan;99789.94;5016791;27;100960;-84
2023/11/09 05:14:43;;;;;;;0.52;0.52;;;;;;;6.54;nan;99837.72;5046224;27;97393;-84
2023/11/09 05:17:09;;;;;;;0.50;0.50;;;;;;;6.26;nan;99791.50;5047956;27;97005;-90
2023/11/09 05:19:36;;;;;;;1.70;1.60;;;;;;;6.57;nan;99837.66;5047037;27;97652;-81
2023/11/09 05:22:03;;;;;;;1.20;1.20;;;;;;;6.29;nan;99791.44;5017852;27;99884;-84
2023/11/09 05:24:28;;;;;;;0.88;0.88;;;;;;;6.55;nan;99822.06;5043591;27;97991;-82
2023/11/09 05:26:54;;;;;;;0.80;0.80;;;;;;;6.71;nan;99826.88;5029423;27;97072;-83
2023/11/09 05:29:20;;;;;;;1.30;1.30;;;;;;;6.83;nan;99830.91;5032219;27;96907;-82
2023/11/09 05:31:46;;;;;;;1.50;1.50;;;;;;;6.67;nan;99818.28;5013298;27;101597;-84
2023/11/09 05:34:11;;;;;;;2.50;2.40;;;;;;;6.61;nan;99773.25;5037982;27;100022;-83
2023/11/09 05:36:38;;;;;;;3.90;3.70;;;;;;;6.93;nan;99819.34;5042346;27;96745;-84
2023/11/09 05:39:10;;;;;;;3.75;3.55;;;;;;;6.70;nan;99776.47;5043481;27;97331;-87
2023/11/09 05:41:36;;;;;;;4.00;3.80;;;;;;;6.70;nan;99779.06;5029075;27;99804;-87
2023/11/09 05:44:01;;;;;;;3.55;3.35;;;;;;;6.90;nan;99809.00;5025452;27;97784;-82
2023/11/09 05:46:27;;;;;;;4.10;3.90;;;;;;;6.81;nan;99802.28;5042208;27;96713;-85
2023/11/09 05:48:52;;;;;;;3.47;3.28;;;;;;;6.50;nan;99752.66;5025659;27;96848;-81
2023/11/09 05:51:23;;;;;;;3.28;3.17;;;;;;;6.54;nan;99794.28;5020577;27;101141;-89
2023/11/09 05:53:49;;;;;;;4.13;3.92;;;;;;;6.47;nan;99795.31;5035796;27;101108;-87
2023/11/09 05:56:16;;;;;;;4.40;4.20;;;;;;;6.51;nan;99789.13;5046355;27;96862;-80
2023/11/09 05:58:42;;;;;;;3.70;3.50;;;;;;;6.51;nan;99783.91;5029641;27;96994;-86
2023/11/09 06:01:08;;;;;;;3.90;3.70;;;;;;;6.39;nan;99767.72;5031494;27;97818;-87
2023/11/09 06:03:34;;;;;;;3.08;2.97;;;;;;;6.24;nan;99733.34;5070549;27;97962;-85
2023/11/09 06:06:00;;;;;;;3.65;3.45;;;;;;;6.37;nan;99786.03;5034370;27;96819;-73
2023/11/09 06:08:25;;;;;;;2.40;2.30;;;;;;;6.36;nan;99784.31;5051544;27;96746;-74
2023/11/09 06:10:51;;;;;;;2.90;2.80;;;;;;;6.31;nan;99788.75;5058764;27;97441;-75
2023/11/09 06:13:16;;;;;;;2.80;2.70;;;;;;;6.24;nan;99775.03;5072593;27;97336;-78
2023/11/09 06:15:42;;;;;;;2.92;2.83;;;;;;;6.31;nan;99791.38;5022006;27;98136;-81
2023/11/09 06:18:09;;;;;;;2.80;2.70;;;;;;;6.31;nan;99789.66;5028064;27;96853;-82
2023/11/09 06:20:38;;;;;;;4.95;4.57;;;;;;;6.05;nan;99746.00;5035236;27;98072;-82
2023/11/09 06:23:05;;;;;;;2.65;2.45;;;;;;;6.34;nan;99789.56;5044145;27;97477;-81
2023/11/09 06:25:31;;;;;;;1.80;1.70;;;;;;;6.14;nan;99750.13;5030853;27;97237;-81
2023/11/09 06:27:57;;;;;;;1.23;1.23;;;;;;;6.22;nan;99750.75;5028839;27;98277;-82
2023/11/09 06:30:22;;;;;;;1.33;1.33;;;;;;;6.09;nan;99723.31;5011100;27;100064;-82
2023/11/09 06:32:48;;;;;;;0.70;0.70;;;;;;;6.43;nan;99793.69;5060775;27;98352;-81
2023/11/09 06:35:17;;;;;;;0.90;0.90;;;;;;;6.48;nan;99791.81;5020429;27;97324;-83
2023/11/09 06:37:45;;;;;;;0.90;0.90;;;;;;;6.58;nan;99795.06;5046370;27;96910;-81
2023/11/09 06:40:16;;;;;;;0.70;0.70;;;;;;;6.70;nan;99799.09;5020886;27;97479;-81
2023/11/09 06:42:43;;;;;;;0.80;0.80;;;;;;;6.66;nan;99784.41;5032564;27;101266;-82
2023/11/09 06:45:09;;;;;;;2.00;1.90;;;;;;;6.81;nan;99791.84;5020372;27;96979;-82
2023/11/09 06:47:35;;;;;;;0.93;0.93;;;;;;;6.49;nan;99725.75;5026576;27;97134;-82
2023/11/09 06:50:12;;;;;;;0.22;0.22;;;;;;;6.99;nan;99783.50;5034845;27;98620;-81
2023/11/09 06:52:42;;;;;;;0.30;0.30;;;;;;;7.04;nan;99752.06;5055510;27;97925;-82
2023/11/09 06:55:11;;;;;;;0.30;0.30;;;;;;;7.81;nan;99797.63;5025646;27;97189;-82
2023/11/09 06:57:39;;;;;;;0.93;0.93;;;;;;;8.31;nan;99792.53;5037140;27;96931;-81
2023/11/09 07:00:12;;;;;;;0.95;0.95;;;;;;;8.66;nan;99785.28;5033673;27;98410;-81
2023/11/09 07:02:39;;;;;;;0.85;0.85;;;;;;;8.98;nan;99788.53;5034522;27;101452;-81
2023/11/09 07:05:06;;;;;;;0.20;0.20;;;;;;;9.26;nan;99764.81;5014073;27;97264;-78
2023/11/09 07:07:32;;;;;;;1.50;1.42;;;;;;;9.61;nan;99805.41;5014572;27;97351;-81
2023/11/09 07:10:01;;;;;;;0.20;0.20;;;;;;;9.02;nan;99777.06;5037240;27;97920;-81
2023/11/09 07:12:27;;;;;;;0.20;0.20;;;;;;;9.23;nan;99805.06;5036148;27;97857;-85
2023/11/09 07:14:53;;;;;;;0.20;0.20;;;;;;;9.10;nan;99803.78;5038386;27;96811;-82
2023/11/09 07:17:22;;;;;;;0.50;0.50;;;;;;;8.76;nan;99797.16;5036904;27;97686;-79
2023/11/09 07:19:49;;;;;;;1.05;1.00;;;;;;;8.94;nan;99795.66;5047626;27;100973;-85
2023/11/09 07:22:15;;;;;;;0.50;0.50;;;;;;;9.06;nan;99792.59;5039860;27;98339;-82
2023/11/09 07:24:42;;;;;;;0.75;0.75;;;;;;;9.09;nan;99762.81;5038758;27;97430;-85
2023/11/09 07:27:11;;;;;;;0.30;0.30;;;;;;;9.27;nan;99798.78;5039740;27;96729;-85
2023/11/09 07:29:37;;;;;;;0.60;0.60;;;;;;;9.45;nan;99773.69;5052580;27;98040;-88
2023/11/09 07:32:03;;;;;;;0.20;0.20;;;;;;;9.62;nan;99782.66;5060853;27;100817;-76
2023/11/09 07:34:30;;;;;;;1.48;1.42;;;;;;;9.88;nan;99779.03;5034808;27;96756;-79
2023/11/09 07:37:01;;;;;;;0.73;0.73;;;;;;;10.38;nan;99770.88;5040080;27;96842;-81
2023/11/09 07:39:27;;;;;;;0.30;0.30;;;;;;;10.61;nan;99781.25;5052191;27;97441;-78
2023/11/09 07:42:00;;;;;;;0.65;0.65;;;;;;;11.03;nan;99780.34;5056308;27;101069;-80
2023/11/09 07:44:27;;;;;;;0.40;0.40;;;;;;;11.17;nan;99776.22;5056350;27;96723;-75
2023/11/09 07:46:54;;;;;;;0.30;0.30;;;;;;;10.38;nan;99736.78;5022803;27;97528;-74
2023/11/09 07:49:19;;;;;;;0.47;0.47;;;;;;;10.25;nan;99772.31;5031590;27;101317;-75
2023/11/09 07:51:45;;;;;;;0.40;0.40;;;;;;;10.30;nan;99767.75;5053691;27;98047;-79
2023/11/09 07:54:15;;;;;;;0.22;0.22;;;;;;;10.23;nan;99759.22;5038136;27;96991;-76
2023/11/09 07:56:40;;;;;;;0.82;0.82;;;;;;;10.32;nan;99737.03;5055738;27;96902;-77
2023/11/09 07:59:06;;;;;;;0.30;0.30;;;;;;;10.83;nan;99733.94;5036154;27;97533;-75
2023/11/09 08:01:32;;;;;;;0.28;0.28;;;;;;;11.07;nan;99731.13;5036220;27;97297;-76
2023/11/09 08:03:57;;;;;;;1.58;1.48;;;;;;;10.87;nan;99724.16;5033912;27;96871;-85
2023/11/09 08:06:23;;;;;;;0.20;0.20;;;;;;;11.06;nan;99688.25;5054221;27;96788;-84
2023/11/09 08:08:52;;;;;;;0.35;0.35;;;;;;;11.64;nan;99720.63;5034872;27;97519;-82
2023/11/09 08:11:19;;;;;;;0.30;0.30;;;;;;;11.63;nan;99682.94;5045668;27;98028;-86
2023/11/09 08:13:46;;;;;;;1.17;1.17;;;;;;;12.20;nan;99683.66;5030344;27;96756;-85
2023/11/09 08:16:12;;;;;;;0.68;0.68;;;;;;;11.89;nan;99725.56;5054017;27;98555;-85
2023/11/09 08:18:40;;;;;;;0.40;0.40;;;;;;;11.93;nan;99722.72;5038920;27;97979;-83
2023/11/09 08:21:06;;;;;;;0.20;0.20;;;;;;;12.06;nan;99722.13;5018262;27;99280;-86
2023/11/09 08:23:31;;;;;;;2.45;2.30;;;;;;;11.81;nan;99704.88;5054858;27;96625;-87
2023/11/09 08:25:57;;;;;;;0.40;0.40;;;;;;;12.05;nan;99723.91;5051649;27;97840;-82
2023/11/09 08:28:26;;;;;;;1.15;1.15;;;;;;;11.52;nan;99688.75;5028360;27;101366;-84
2023/11/09 08:30:52;;;;;;;1.05;1.05;;;;;;;11.94;nan;99726.19;5045032;27;97988;-85
2023/11/09 08:33:24;;;;;;;0.20;0.20;;;;;;;12.28;nan;99709.59;5034761;27;96989;-84
2023/11/09 08:35:53;;;;;;;0.20;0.20;;;;;;;12.49;nan;99705.00;5034757;27;97323;-85
2023/11/09 08:38:22;;;;;;;1.25;1.15;;;;;;;12.80;nan;99679.69;5040606;27;98550;-84
2023/11/09 08:40:49;;;;;;;0.20;0.20;;;;;;;13.00;nan;99713.75;5025962;27;99915;-81
2023/11/09 08:43:15;;;;;;;0.55;0.55;;;;;;;13.24;nan;99669.38;5030753;27;96852;-85
2023/11/09 08:45:40;;;;;;;0.40;0.40;;;;;;;13.36;nan;99705.63;5037760;27;96951;-86
2023/11/09 08:48:07;;;;;;;0.95;0.95;;;;;;;13.53;nan;99709.13;5051066;27;98102;-86
2023/11/09 08:50:36;;;;;;;0.50;0.50;;;;;;;12.97;nan;99705.97;5047918;27;97451;-83
2023/11/09 08:53:03;;;;;;;0.70;0.70;;;;;;;13.14;nan;99674.28;5025786;27;97243;-87
2023/11/09 08:55:29;;;;;;;1.10;1.10;;;;;;;13.93;nan;99664.63;5055672;27;97125;-86
2023/11/09 08:57:55;;;;;;;1.38;1.38;;;;;;;14.17;nan;99692.25;5082485;27;98083;-88
2023/11/09 09:00:23;;;;;;;1.77;1.67;;;;;;;14.39;nan;99690.97;5063561;27;98858;-84
2023/11/09 09:02:49;;;;;;;0.70;0.70;;;;;;;14.37;nan;99701.63;5050337;27;97119;-86
2023/11/09 09:05:20;;;;;;;1.13;1.13;;;;;;;14.39;nan;99654.84;5051445;27;97290;-86
2023/11/09 09:07:46;;;;;;;1.50;1.50;;;;;;;15.18;nan;99658.81;5061159;27;98412;-87
2023/11/09 09:10:15;;;;;;;2.40;2.30;;;;;;;14.90;nan;99691.44;5052929;27;97527;-82
2023/11/09 09:12:44;;;;;;;0.60;0.60;;;;;;;15.51;nan;99689.34;5059378;27;96686;-86
2023/11/09 09:15:15;;;;;;;0.38;0.38;;;;;;;15.27;nan;99691.75;5044001;27;96897;-86
2023/11/09 09:17:50;;;;;;;0.70;0.70;;;;;;;15.11;nan;99689.22;5060659;27;97669;-87
2023/11/09 09:20:20;;;;;;;1.60;1.40;;;;;;;14.36;nan;99685.88;5059935;27;97829;-87
2023/11/09 09:22:50;;;;;;;1.10;1.10;;;;;;;14.58;nan;99677.56;5045292;27;96981;-87
2023/11/09 09:25:16;;;;;;;4.57;2.80;;;;;;;14.88;nan;99675.66;5054991;27;96826;-86
2023/11/09 09:27:42;;;;;;;0.90;0.90;;;;;;;14.52;nan;99686.69;5058316;27;97490;-87
2023/11/09 09:30:13;;;;;;;1.00;1.00;;;;;;;14.62;nan;99677.25;5046569;27;97409;-86
2023/11/09 09:32:45;;;;;;;2.35;2.15;;;;;;;14.11;nan;99676.78;5022242;27;98228;-84
2023/11/09 09:35:12;;;;;;;2.50;2.13;;;;;;;13.96;nan;99677.66;5045508;27;97033;-84
2023/11/09 09:37:39;;;;;;;0.70;0.70;;;;;;;13.82;nan;99644.19;5043697;27;97460;-84
2023/11/09 09:40:17;;;;;;;2.35;2.25;;;;;;;13.97;nan;99660.91;5028980;27;101421;-86
2023/11/09 09:42:49;;;;;;;2.05;1.95;;;;;;;13.94;nan;99650.53;5045864;27;97930;-86
2023/11/09 09:45:30;;;;;;;1.55;1.48;;;;;;;13.36;nan;99654.69;5036440;27;96883;-77
2023/11/09 09:48:05;;;;;;;1.20;1.20;;;;;;;13.33;nan;99658.34;5054650;27;97620;-86
2023/11/09 09:50:37;;;;;;;0.43;0.43;;;;;;;13.11;nan;99650.75;5040002;27;101069;-86
2023/11/09 09:53:04;;;;;;;0.75;0.75;;;;;;;12.81;nan;99616.41;5023992;27;97947;-86
2023/11/09 09:55:30;;;;;;;0.68;0.68;;;;;;;13.35;nan;99643.31;5042040;27;96936;-86
2023/11/09 09:57:57;;;;;;;0.70;0.70;;;;;;;13.16;nan;99644.38;5058267;27;97984;-86
2023/11/09 10:00:24;;;;;;;0.60;0.60;;;;;;;12.90;nan;99642.25;5027552;27;101706;-86
2023/11/09 10:02:51;;;;;;;0.40;0.40;;;;;;;13.13;nan;99600.63;5050222;27;96768;-86
2023/11/09 10:05:17;;;;;;;0.85;0.85;;;;;;;13.27;nan;99632.34;5055677;27;96868;-85
2023/11/09 10:08:05;;;;;;;0.50;0.50;;;;;;;12.99;nan;99634.78;5058214;27;98213;-86
2023/11/09 10:10:32;;;;;;;1.30;1.30;;;;;;;13.12;nan;99614.72;5057954;27;98251;-86
2023/11/09 10:13:02;;;;;;;0.80;0.80;;;;;;;12.78;nan;99582.34;5039492;27;98029;-86
2023/11/09 10:15:29;;;;;;;0.52;0.52;;;;;;;12.95;nan;99614.81;5033718;27;98031;-82
2023/11/09 10:17:55;;;;;;;0.85;0.85;;;;;;;12.99;nan;99613.69;5053631;27;98753;-86
2023/11/09 10:20:21;;;;;;;0.60;0.60;;;;;;;12.98;nan;99604.94;5032939;27;97952;-85
2023/11/09 10:22:48;;;;;;;1.73;1.38;;;;;;;12.94;nan;99606.03;5029930;27;97585;-84
2023/11/09 10:25:14;;;;;;;0.93;0.93;;;;;;;13.02;nan;99551.13;5027691;27;97291;-83
2023/11/09 10:27:40;;;;;;;0.70;0.70;;;;;;;13.32;nan;99585.50;5032637;27;98233;-83
2023/11/09 10:30:06;;;;;;;0.60;0.60;;;;;;;13.51;nan;99595.81;5054339;27;97542;-81
2023/11/09 10:32:36;;;;;;;0.65;0.65;;;;;;;13.55;nan;99562.22;5056120;27;96845;-83
2023/11/09 10:35:05;;;;;;;0.50;0.50;;;;;;;13.73;nan;99574.34;5029445;27;97067;-85
2023/11/09 10:37:33;;;;;;;0.50;0.50;;;;;;;13.25;nan;99563.06;5054426;27;97837;-87
2023/11/09 10:40:04;;;;;;;0.40;0.40;;;;;;;13.44;nan;99573.41;5050786;27;97333;-87
2023/11/09 10:42:30;;;;;;;0.93;0.93;;;;;;;13.83;nan;99572.00;5052311;27;97350;-83
2023/11/09 10:44:57;;;;;;;1.05;1.05;;;;;;;13.68;nan;99543.91;5057005;27;96773;-88
2023/11/09 10:47:24;;;;;;;0.40;0.40;;;;;;;14.00;nan;99568.38;5055215;27;98832;-89
2023/11/09 10:49:54;;;;;;;0.30;0.30;;;;;;;14.06;nan;99560.06;5059362;27;98528;-87
2023/11/09 10:52:21;;;;;;;0.40;0.40;;;;;;;14.24;nan;99572.16;5047476;27;97347;-83
2023/11/09 10:54:51;;;;;;;0.25;0.25;;;;;;;14.21;nan;99571.50;5030918;27;96860;-89
2023/11/09 10:57:20;;;;;;;1.33;1.33;;;;;;;14.12;nan;99575.53;5046778;27;97168;-89
2023/11/09 10:59:48;;;;;;;0.30;0.30;;;;;;;14.21;nan;99574.13;5056877;27;97259;-87
2023/11/09 11:02:27;;;;;;;0.45;0.45;;;;;;;14.33;nan;99568.09;5057734;27;97090;-88
2023/11/09 11:04:59;;;;;;;0.80;0.80;;;;;;;14.44;nan;99564.81;5041248;27;96828;-90
2023/11/09 11:07:29;;;;;;;0.90;0.90;;;;;;;14.23;nan;99566.97;5015516;27;101041;-86
2023/11/09 11:09:58;;;;;;;0.45;0.45;;;;;;;14.15;nan;99546.31;5055142;27;99587;-85
2023/11/09 11:12:24;;;;;;;0.40;0.40;;;;;;;14.14;nan;99552.53;5038821;27;97382;-90
2023/11/09 11:14:51;;;;;;;0.40;0.40;;;;;;;14.11;nan;99551.88;5043593;27;98236;-90
2023/11/09 11:17:51;;;;;;;3.55;1.73;;;;;;;14.08;nan;99558.19;5033908;27;100138;-83
2023/11/09 11:20:32;;;;;;;1.25;1.25;;;;;;;14.07;nan;99555.63;5030785;27;101018;-87
2023/11/09 11:23:17;;;;;;;0.85;0.85;;;;;;;13.99;nan;99543.78;5060834;27;96839;-80
2023/11/09 11:25:56;;;;;;;1.70;1.60;;;;;;;13.99;nan;99542.91;5034091;27;96983;-91
2023/11/09 11:28:26;;;;;;;0.50;0.50;;;;;;;13.89;nan;99504.84;5048037;27;98130;-88
2023/11/09 11:30:52;;;;;;;0.40;0.40;;;;;;;14.00;nan;99524.34;5048327;27;98140;-91
2023/11/09 11:33:20;;;;;;;0.50;0.50;;;;;;;14.08;nan;99538.84;5051862;27;96900;-89
2023/11/09 11:35:56;;;;;;;0.40;0.40;;;;;;;13.63;nan;99501.13;5039813;27;97360;-88
2023/11/09 11:38:23;;;;;;;0.40;0.40;;;;;;;13.70;nan;99527.06;5059619;27;97973;-83
2023/11/09 11:41:00;;;;;;;0.73;0.73;;;;;;;13.68;nan;99536.00;5052980;27;97450;-82
2023/11/09 11:43:42;;;;;;;0.55;0.55;;;;;;;13.52;nan;99493.84;5055874;27;97512;-83
2023/11/09 11:46:12;;;;;;;0.60;0.60;;;;;;;13.52;nan;99496.47;5040439;27;97212;-82
2023/11/09 11:48:44;;;;;;;0.30;0.30;;;;;;;13.57;nan;99515.53;5013180;27;102029;-82
2023/11/09 11:51:10;;;;;;;0.40;0.40;;;;;;;13.70;nan;99515.63;5046200;27;101067;-82
2023/11/09 11:53:39;;;;;;;0.30;0.30;;;;;;;13.75;nan;99513.56;5019777;27;97453;-82
2023/11/09 11:56:10;;;;;;;0.30;0.30;;;;;;;13.85;nan;99524.44;5042639;27;98067;-83
2023/11/09 11:59:00;;;;;;;0.65;0.65;;;;;;;13.75;nan;99511.78;5029056;27;98230;-83
2023/11/09 12:01:28;;;;;;;0.55;0.55;;;;;;;13.74;nan;99517.16;5044851;27;98121;-82
2023/11/09 12:03:57;;;;;;;0.40;0.40;;;;;;;13.67;nan;99500.00;5062086;27;97161;-83